createdAt,value
2016-02-22T00:00:10.770Z,0
2016-02-22T00:01:10.773Z,0
2016-02-22T00:02:10.823Z,0
2016-02-22T00:03:10.825Z,0
2016-02-22T00:04:10.859Z,0
2016-02-22T00:05:11.052Z,0
2016-02-22T00:06:10.883Z,0
2016-02-22T00:07:10.917Z,0
2016-02-22T00:08:10.809Z,0
2016-02-22T00:09:10.938Z,0
2016-02-22T00:10:10.972Z,0
2016-02-22T00:11:10.990Z,0
2016-02-22T00:12:11.024Z,0
2016-02-22T00:13:11.058Z,0
2016-02-22T00:14:11.061Z,0
2016-02-22T00:15:11.203Z,0
2016-02-22T00:16:11.102Z,0
2016-02-22T00:17:11.121Z,0
2016-02-22T00:18:11.170Z,0
2016-02-22T00:19:11.157Z,0
2016-02-22T00:20:11.191Z,0
2016-02-22T00:21:11.209Z,0
2016-02-22T00:22:11.227Z,0
2016-02-22T00:23:11.262Z,0
2016-02-22T00:24:11.296Z,0
2016-02-22T00:25:11.298Z,0
2016-02-22T00:26:11.316Z,0
2016-02-22T00:27:11.335Z,0
2016-02-22T00:28:11.353Z,0
2016-02-22T00:29:11.387Z,0
2016-02-22T00:30:11.406Z,0
2016-02-22T00:31:11.424Z,0
2016-02-22T00:32:11.457Z,0
2016-02-22T00:33:11.460Z,0
2016-02-22T00:34:11.494Z,0
2016-02-22T00:35:11.512Z,0
2016-02-22T00:36:11.531Z,0
2016-02-22T00:37:11.674Z,0
2016-02-22T00:38:11.583Z,0
2016-02-22T00:39:11.601Z,0
2016-02-22T00:40:11.604Z,0
2016-02-22T00:41:11.653Z,0
2016-02-22T00:42:11.656Z,0
2016-02-22T00:43:11.675Z,0
2016-02-22T00:44:11.725Z,0
2016-02-22T00:45:11.727Z,0
2016-02-22T00:46:11.744Z,0
2016-02-22T00:47:11.764Z,0
2016-02-22T00:48:11.782Z,0
2016-02-22T00:49:11.832Z,0
2016-02-22T00:50:11.834Z,0
2016-02-22T00:51:11.853Z,0
2016-02-22T00:52:11.871Z,0
2016-02-22T00:53:11.920Z,0
2016-02-22T00:54:11.938Z,0
2016-02-22T00:55:11.941Z,0
2016-02-22T00:56:11.976Z,0
2016-02-22T00:57:11.978Z,0
2016-02-22T00:58:12.012Z,0
2016-02-22T00:59:12.045Z,0
2016-02-22T01:00:12.049Z,0
2016-02-22T01:01:12.067Z,0
2016-02-22T01:02:12.100Z,0
2016-02-22T01:03:12.104Z,0
2016-02-22T01:04:12.138Z,0
2016-02-22T01:05:12.156Z,0
2016-02-22T01:06:12.173Z,0
2016-02-22T01:07:12.209Z,0
2016-02-22T01:08:12.258Z,0
2016-02-22T01:09:12.245Z,0
2016-02-22T01:10:12.247Z,0
2016-02-22T01:11:12.297Z,0
2016-02-22T01:12:12.299Z,0
2016-02-22T01:13:12.317Z,0
2016-02-22T01:14:12.383Z,0
2016-02-22T01:15:12.355Z,0
2016-02-22T01:16:12.404Z,0
2016-02-22T01:17:12.407Z,0
2016-02-22T01:18:12.425Z,0
2016-02-22T01:19:12.458Z,0
2016-02-22T01:20:12.461Z,0
2016-02-22T01:21:12.496Z,0
2016-02-22T01:22:12.513Z,0
2016-02-22T01:23:12.579Z,0
2016-02-22T01:24:12.551Z,0
2016-02-22T01:25:12.584Z,0
2016-02-22T01:26:12.587Z,0
2016-02-22T01:27:12.621Z,0
2016-02-22T01:28:12.655Z,0
2016-02-22T01:29:12.657Z,0
2016-02-22T01:30:12.692Z,0
2016-02-22T01:31:12.741Z,0
2016-02-22T01:32:12.728Z,0
2016-02-22T01:33:12.762Z,0
2016-02-22T01:34:12.765Z,0
2016-02-22T01:35:12.798Z,0
2016-02-22T01:36:12.801Z,0
2016-02-22T01:37:12.836Z,0
2016-02-22T01:38:12.885Z,0
2016-02-22T01:39:12.887Z,0
2016-02-22T01:40:12.890Z,0
2016-02-22T01:41:12.956Z,0
2016-02-22T01:42:12.974Z,0
2016-02-22T01:43:12.945Z,0
2016-02-22T01:44:12.980Z,0
2016-02-22T01:45:12.997Z,0
2016-02-22T01:46:13.031Z,0
2016-02-22T01:47:13.066Z,0
2016-02-22T01:48:13.069Z,0
2016-02-22T01:49:13.118Z,0
2016-02-22T01:50:13.105Z,0
2016-02-22T01:51:13.139Z,0
2016-02-22T01:52:13.141Z,0
2016-02-22T01:53:13.175Z,0
2016-02-22T01:54:13.194Z,0
2016-02-22T01:55:13.259Z,0
2016-02-22T01:56:13.246Z,0
2016-02-22T01:57:13.265Z,0
2016-02-22T01:58:13.282Z,0
2016-02-22T01:59:13.301Z,0
2016-02-22T02:00:13.319Z,0
2016-02-22T02:01:13.337Z,0
2016-02-22T02:02:13.356Z,0
2016-02-22T02:03:13.531Z,0
2016-02-22T02:04:13.409Z,0
2016-02-22T02:05:13.426Z,0
2016-02-22T02:06:13.289Z,0
2016-02-22T02:07:13.463Z,0
2016-02-22T02:08:13.528Z,0
2016-02-22T02:09:13.515Z,0
2016-02-22T02:10:13.534Z,0
2016-02-22T02:11:13.536Z,0
2016-02-22T02:12:13.601Z,0
2016-02-22T02:13:13.589Z,0
2016-02-22T02:14:13.638Z,0
2016-02-22T02:15:13.641Z,0
2016-02-22T02:16:13.736Z,0
2016-02-22T02:17:13.708Z,0
2016-02-22T02:18:13.696Z,0
2016-02-22T02:19:13.791Z,0
2016-02-22T02:20:13.747Z,0
2016-02-22T02:21:13.782Z,0
2016-02-22T02:22:13.816Z,0
2016-02-22T02:23:13.802Z,0
2016-02-22T02:24:13.838Z,0
2016-02-22T02:25:13.840Z,0
2016-02-22T02:26:13.733Z,0
2016-02-22T02:27:13.939Z,0
2016-02-22T02:28:13.988Z,0
2016-02-22T02:29:14.038Z,0
2016-02-22T02:30:13.979Z,0
2016-02-22T02:31:14.106Z,0
2016-02-22T02:32:13.999Z,0
2016-02-22T02:33:14.112Z,0
2016-02-22T02:34:14.098Z,0
2016-02-22T02:35:14.054Z,0
2016-02-22T02:36:14.088Z,0
2016-02-22T02:37:14.137Z,0
2016-02-22T02:38:14.203Z,0
2016-02-22T02:39:14.268Z,0
2016-02-22T02:40:14.348Z,0
2016-02-22T02:41:14.304Z,0
2016-02-22T02:42:14.323Z,0
2016-02-22T02:43:14.231Z,0
2016-02-22T02:44:14.250Z,0
2016-02-22T02:45:14.283Z,0
2016-02-22T02:46:14.286Z,0
2016-02-22T02:47:14.305Z,0
2016-02-22T02:48:14.354Z,0
2016-02-22T02:49:14.341Z,0
2016-02-22T02:50:14.391Z,0
2016-02-22T02:51:14.549Z,0
2016-02-22T02:52:14.599Z,0
2016-02-22T02:53:14.586Z,0
2016-02-22T02:54:14.745Z,0
2016-02-22T02:55:14.685Z,0
2016-02-22T02:56:14.532Z,0
2016-02-22T02:57:14.551Z,0
2016-02-22T02:58:14.709Z,0
2016-02-22T02:59:14.571Z,0
2016-02-22T03:00:14.590Z,0
2016-02-22T03:01:14.607Z,0
2016-02-22T03:02:14.642Z,0
2016-02-22T03:03:14.660Z,0
2016-02-22T03:04:14.679Z,0
2016-02-22T03:05:14.823Z,0
2016-02-22T03:06:14.715Z,0
2016-02-22T03:07:14.749Z,0
2016-02-22T03:08:14.752Z,0
2016-02-22T03:09:14.770Z,0
2016-02-22T03:10:14.804Z,0
2016-02-22T03:11:14.839Z,0
2016-02-22T03:12:14.841Z,0
2016-02-22T03:13:14.875Z,0
2016-02-22T03:14:14.892Z,0
2016-02-22T03:15:14.896Z,0
2016-02-22T03:16:14.930Z,0
2016-02-22T03:17:14.947Z,0
2016-02-22T03:18:14.966Z,0
2016-02-22T03:19:15.204Z,0
2016-02-22T03:20:15.066Z,0
2016-02-22T03:21:15.052Z,0
2016-02-22T03:22:15.056Z,0
2016-02-22T03:23:15.058Z,0
2016-02-22T03:24:15.091Z,0
2016-02-22T03:25:15.110Z,0
2016-02-22T03:26:15.144Z,0
2016-02-22T03:27:15.163Z,0
2016-02-22T03:28:15.180Z,0
2016-02-22T03:29:15.230Z,0
2016-02-22T03:30:15.218Z,0
2016-02-22T03:31:15.236Z,0
2016-02-22T03:32:15.285Z,0
2016-02-22T03:33:15.288Z,0
2016-02-22T03:34:15.307Z,0
2016-02-22T03:35:15.324Z,0
2016-02-22T03:36:15.390Z,0
2016-02-22T03:37:15.408Z,0
2016-02-22T03:38:15.379Z,0
2016-02-22T03:39:15.445Z,0
2016-02-22T03:40:15.463Z,0
2016-02-22T03:41:15.481Z,0
2016-02-22T03:42:15.468Z,0
2016-02-22T03:43:15.503Z,0
2016-02-22T03:44:15.505Z,0
2016-02-22T03:45:15.523Z,0
2016-02-22T03:46:15.558Z,0
2016-02-22T03:47:15.561Z,0
2016-02-22T03:48:15.609Z,0
2016-02-22T03:49:15.612Z,0
2016-02-22T03:50:15.646Z,0
2016-02-22T03:51:15.664Z,0
2016-02-22T03:52:15.683Z,0
2016-02-22T03:53:15.717Z,0
2016-02-22T03:54:15.719Z,0
2016-02-22T03:55:15.738Z,0
2016-02-22T03:56:15.756Z,0
2016-02-22T03:57:15.806Z,0
2016-02-22T03:58:15.808Z,0
2016-02-22T03:59:15.827Z,0
2016-02-22T04:00:15.830Z,0
2016-02-22T04:01:15.863Z,0
2016-02-22T04:02:15.897Z,0
2016-02-22T04:03:15.900Z,0
2016-02-22T04:04:15.934Z,0
2016-02-22T04:05:15.952Z,0
2016-02-22T04:06:15.987Z,0
2016-02-22T04:07:16.004Z,0
2016-02-22T04:08:16.007Z,0
2016-02-22T04:09:16.026Z,0
2016-02-22T04:10:16.059Z,0
2016-02-22T04:11:16.062Z,0
2016-02-22T04:12:16.096Z,0
2016-02-22T04:13:16.131Z,0
2016-02-22T04:14:16.148Z,0
2016-02-22T04:15:16.167Z,0
2016-02-22T04:16:16.185Z,0
2016-02-22T04:17:16.187Z,0
2016-02-22T04:18:16.237Z,0
2016-02-22T04:19:16.239Z,0
2016-02-22T04:20:16.258Z,0
2016-02-22T04:21:16.308Z,0
2016-02-22T04:22:16.279Z,0
2016-02-22T04:23:16.313Z,0
2016-02-22T04:24:16.331Z,0
2016-02-22T04:25:16.365Z,0
2016-02-22T04:26:16.383Z,0
2016-02-22T04:27:16.418Z,0
2016-02-22T04:28:16.435Z,0
2016-02-22T04:29:16.438Z,0
2016-02-22T04:30:16.488Z,0
2016-02-22T04:31:16.491Z,0
2016-02-22T04:32:16.509Z,0
2016-02-22T04:33:16.527Z,0
2016-02-22T04:34:16.562Z,0
2016-02-22T04:35:16.579Z,0
2016-02-22T04:36:16.582Z,0
2016-02-22T04:37:16.616Z,0
2016-02-22T04:38:16.682Z,0
2016-02-22T04:39:16.668Z,0
2016-02-22T04:40:16.687Z,0
2016-02-22T04:41:16.705Z,0
2016-02-22T04:42:16.724Z,0
2016-02-22T04:43:16.757Z,0
2016-02-22T04:44:16.759Z,0
2016-02-22T04:45:16.795Z,0
2016-02-22T04:46:16.797Z,0
2016-02-22T04:47:16.815Z,0
2016-02-22T04:48:16.864Z,0
2016-02-22T04:49:16.868Z,0
2016-02-22T04:50:16.901Z,0
2016-02-22T04:51:16.903Z,0
2016-02-22T04:52:16.250Z,0
2016-02-22T04:53:16.955Z,0
2016-02-22T04:54:16.975Z,0
2016-02-22T04:55:17.008Z,0
2016-02-22T04:56:16.996Z,0
2016-02-22T04:57:17.045Z,0
2016-02-22T04:58:17.047Z,0
2016-02-22T04:59:17.066Z,0
2016-02-22T05:00:17.099Z,0
2016-02-22T05:01:16.947Z,0
2016-02-22T05:02:17.137Z,0
2016-02-22T05:03:17.155Z,0
2016-02-22T05:04:17.174Z,0
2016-02-22T05:05:17.209Z,0
2016-02-22T05:06:17.212Z,0
2016-02-22T05:07:17.246Z,0
2016-02-22T05:08:17.248Z,0
2016-02-22T05:09:17.298Z,0
2016-02-22T05:10:17.301Z,0
2016-02-22T05:11:17.334Z,0
2016-02-22T05:12:17.353Z,0
2016-02-22T05:13:17.372Z,0
2016-02-22T05:14:17.390Z,0
2016-02-22T05:15:17.392Z,0
2016-02-22T05:16:17.442Z,0
2016-02-22T05:17:17.429Z,0
2016-02-22T05:18:17.463Z,0
2016-02-22T05:19:17.480Z,0
2016-02-22T05:20:17.499Z,0
2016-02-22T05:21:17.550Z,0
2016-02-22T05:22:17.536Z,0
2016-02-22T05:23:17.569Z,0
2016-02-22T05:24:17.589Z,0
2016-02-22T05:25:17.622Z,0
2016-02-22T05:26:17.624Z,0
2016-02-22T05:27:17.643Z,0
2016-02-22T05:28:17.678Z,0
2016-02-22T05:29:17.680Z,0
2016-02-22T05:30:17.729Z,0
2016-02-22T05:31:17.716Z,0
2016-02-22T05:32:17.751Z,0
2016-02-22T05:33:17.800Z,0
2016-02-22T05:34:17.787Z,0
2016-02-22T05:35:17.821Z,0
2016-02-22T05:36:17.855Z,0
2016-02-22T05:37:17.842Z,0
2016-02-22T05:38:17.892Z,0
2016-02-22T05:39:17.894Z,0
2016-02-22T05:40:17.959Z,0
2016-02-22T05:41:17.931Z,0
2016-02-22T05:42:17.965Z,0
2016-02-22T05:43:17.967Z,0
2016-02-22T05:44:17.986Z,0
2016-02-22T05:45:18.036Z,0
2016-02-22T05:46:18.038Z,0
2016-02-22T05:47:18.072Z,0
2016-02-22T05:48:18.091Z,0
2016-02-22T05:49:18.109Z,0
2016-02-22T05:50:18.127Z,0
2016-02-22T05:51:18.161Z,0
2016-02-22T05:52:18.164Z,0
2016-02-22T05:53:18.182Z,4
2016-02-22T05:54:18.091Z,4
2016-02-22T05:55:18.250Z,4
2016-02-22T05:56:18.253Z,4
2016-02-22T05:57:18.271Z,4
2016-02-22T05:58:18.288Z,4
2016-02-22T05:59:18.308Z,4
2016-02-22T06:00:18.341Z,8
2016-02-22T06:01:18.344Z,4
2016-02-22T06:02:18.393Z,8
2016-02-22T06:03:18.413Z,8
2016-02-22T06:04:18.415Z,8
2016-02-22T06:05:18.464Z,8
2016-02-22T06:06:18.452Z,8
2016-02-22T06:07:18.485Z,8
2016-02-22T06:08:18.487Z,12
2016-02-22T06:09:18.564Z,16
2016-02-22T06:10:18.540Z,16
2016-02-22T06:11:18.544Z,12
2016-02-22T06:12:18.534Z,16
2016-02-22T06:13:18.541Z,16
2016-02-22T06:14:18.564Z,20
2016-02-22T06:15:18.578Z,20
2016-02-22T06:16:18.592Z,24
2016-02-22T06:17:18.606Z,24
2016-02-22T06:18:18.603Z,32
2016-02-22T06:19:18.649Z,36
2016-02-22T06:20:18.651Z,36
2016-02-22T06:21:18.668Z,40
2016-02-22T06:22:18.699Z,40
2016-02-22T06:23:18.717Z,48
2016-02-22T06:24:18.750Z,48
2016-02-22T06:25:18.751Z,48
2016-02-22T06:26:18.815Z,52
2016-02-22T06:27:18.802Z,64
2016-02-22T06:28:18.819Z,60
2016-02-22T06:29:18.821Z,76
2016-02-22T06:30:18.839Z,68
2016-02-22T06:31:18.920Z,80
2016-02-22T06:32:18.875Z,88
2016-02-22T06:33:18.908Z,84
2016-02-22T06:34:18.927Z,80
2016-02-22T06:35:18.945Z,76
2016-02-22T06:36:18.979Z,68
2016-02-22T06:37:18.982Z,76
2016-02-22T06:38:19.015Z,84
2016-02-22T06:39:19.018Z,76
2016-02-22T06:40:19.037Z,84
2016-02-22T06:41:19.055Z,84
2016-02-22T06:42:19.120Z,92
2016-02-22T06:43:19.106Z,100
2016-02-22T06:44:19.142Z,132
2016-02-22T06:45:19.190Z,124
2016-02-22T06:46:19.162Z,108
2016-02-22T06:47:19.196Z,120
2016-02-22T06:48:19.199Z,128
2016-02-22T06:49:19.217Z,152
2016-02-22T06:50:19.250Z,164
2016-02-22T06:51:19.269Z,200
2016-02-22T06:52:19.304Z,196
2016-02-22T06:53:19.322Z,168
2016-02-22T06:54:19.324Z,152
2016-02-22T06:55:19.358Z,204
2016-02-22T06:56:19.392Z,232
2016-02-22T06:57:19.410Z,244
2016-02-22T06:58:19.413Z,204
2016-02-22T06:59:19.447Z,184
2016-02-22T07:00:19.450Z,236
2016-02-22T07:01:19.327Z,240
2016-02-22T07:02:19.502Z,216
2016-02-22T07:03:19.521Z,244
2016-02-22T07:04:19.554Z,292
2016-02-22T07:05:19.557Z,292
2016-02-22T07:06:19.591Z,316
2016-02-22T07:07:19.594Z,312
2016-02-22T07:08:19.612Z,324
2016-02-22T07:09:19.662Z,316
2016-02-22T07:10:19.664Z,312
2016-02-22T07:11:19.682Z,316
2016-02-22T07:12:19.701Z,308
2016-02-22T07:13:19.734Z,332
2016-02-22T07:14:19.753Z,360
2016-02-22T07:15:19.787Z,344
2016-02-22T07:16:19.774Z,332
2016-02-22T07:17:19.823Z,360
2016-02-22T07:18:19.858Z,384
2016-02-22T07:19:19.845Z,372
2016-02-22T07:20:19.878Z,428
2016-02-22T07:21:19.881Z,408
2016-02-22T07:22:19.914Z,436
2016-02-22T07:23:19.918Z,444
2016-02-22T07:24:19.936Z,412
2016-02-22T07:25:19.969Z,448
2016-02-22T07:26:19.989Z,484
2016-02-22T07:27:20.007Z,460
2016-02-22T07:28:20.025Z,460
2016-02-22T07:29:20.043Z,472
2016-02-22T07:30:20.078Z,452
2016-02-22T07:31:20.096Z,468
2016-02-22T07:32:20.113Z,468
2016-02-22T07:33:20.149Z,424
2016-02-22T07:34:20.166Z,428
2016-02-22T07:35:20.185Z,408
2016-02-22T07:36:20.187Z,432
2016-02-22T07:37:20.221Z,396
2016-02-22T07:38:20.240Z,364
2016-02-22T07:39:20.257Z,340
2016-02-22T07:40:20.276Z,340
2016-02-22T07:41:20.310Z,308
2016-02-22T07:42:20.313Z,288
2016-02-22T07:43:20.378Z,284
2016-02-22T07:44:20.349Z,308
2016-02-22T07:45:20.384Z,380
2016-02-22T07:46:20.401Z,308
2016-02-22T07:47:20.420Z,288
2016-02-22T07:48:20.454Z,308
2016-02-22T07:49:20.456Z,380
2016-02-22T07:50:20.490Z,348
2016-02-22T07:51:20.509Z,424
2016-02-22T07:52:20.512Z,536
2016-02-22T07:53:20.545Z,528
2016-02-22T07:54:20.580Z,772
2016-02-22T07:55:20.583Z,756
2016-02-22T07:56:20.600Z,432
2016-02-22T07:57:20.634Z,508
2016-02-22T07:58:20.481Z,604
2016-02-22T07:59:20.671Z,776
2016-02-22T08:00:20.689Z,428
2016-02-22T08:01:20.724Z,556
2016-02-22T08:02:20.727Z,436
2016-02-22T08:03:20.775Z,476
2016-02-22T08:04:20.777Z,652
2016-02-22T08:05:20.797Z,684
2016-02-22T08:06:20.815Z,632
2016-02-22T08:07:20.832Z,576
2016-02-22T08:08:20.868Z,592
2016-02-22T08:09:20.886Z,640
2016-02-22T08:10:20.904Z,684
2016-02-22T08:11:20.937Z,696
2016-02-22T08:12:20.941Z,664
2016-02-22T08:13:20.959Z,524
2016-02-22T08:14:20.976Z,436
2016-02-22T08:15:21.011Z,500
2016-02-22T08:16:21.029Z,580
2016-02-22T08:17:21.032Z,672
2016-02-22T08:18:21.081Z,664
2016-02-22T08:19:21.084Z,592
2016-02-22T08:20:21.103Z,596
2016-02-22T08:21:21.137Z,620
2016-02-22T08:22:21.139Z,688
2016-02-22T08:23:21.189Z,636
2016-02-22T08:24:21.176Z,776
2016-02-22T08:25:21.194Z,704
2016-02-22T08:26:21.228Z,752
2016-02-22T08:27:21.246Z,652
2016-02-22T08:28:21.264Z,580
2016-02-22T08:29:21.283Z,596
2016-02-22T08:30:21.317Z,732
2016-02-22T08:31:21.319Z,720
2016-02-22T08:32:21.369Z,828
2016-02-22T08:33:21.372Z,692
2016-02-22T08:34:21.421Z,536
2016-02-22T08:35:21.424Z,616
2016-02-22T08:36:21.474Z,616
2016-02-22T08:37:21.445Z,576
2016-02-22T08:38:21.480Z,564
2016-02-22T08:39:21.497Z,652
2016-02-22T08:40:21.516Z,724
2016-02-22T08:41:21.535Z,612
2016-02-22T08:42:21.584Z,512
2016-02-22T08:43:21.587Z,532
2016-02-22T08:44:21.621Z,576
2016-02-22T08:45:21.623Z,628
2016-02-22T08:46:21.673Z,644
2016-02-22T08:47:21.504Z,584
2016-02-22T08:48:21.709Z,552
2016-02-22T08:49:21.712Z,504
2016-02-22T08:50:21.730Z,532
2016-02-22T08:51:21.765Z,596
2016-02-22T08:52:21.017Z,552
2016-02-22T08:53:21.800Z,608
2016-02-22T08:54:21.803Z,536
2016-02-22T08:55:21.836Z,680
2016-02-22T08:56:21.872Z,740
2016-02-22T08:57:21.889Z,696
2016-02-22T08:58:21.908Z,640
2016-02-22T08:59:21.910Z,684
2016-02-22T09:00:21.945Z,668
2016-02-22T09:01:21.963Z,904
2016-02-22T09:02:21.996Z,812
2016-02-22T09:03:21.999Z,1012
2016-02-22T09:04:22.033Z,996
2016-02-22T09:05:22.036Z,880
2016-02-22T09:06:21.944Z,860
2016-02-22T09:07:22.088Z,940
2016-02-22T09:08:22.138Z,772
2016-02-22T09:09:22.125Z,572
2016-02-22T09:10:22.159Z,652
2016-02-22T09:11:22.177Z,748
2016-02-22T09:12:22.196Z,656
2016-02-22T09:13:22.213Z,764
2016-02-22T09:14:22.232Z,692
2016-02-22T09:15:22.265Z,648
2016-02-22T09:16:22.268Z,564
2016-02-22T09:17:22.303Z,580
2016-02-22T09:18:22.321Z,716
2016-02-22T09:19:22.371Z,816
2016-02-22T09:20:22.357Z,896
2016-02-22T09:21:22.407Z,896
2016-02-22T09:22:22.409Z,936
2016-02-22T09:23:22.428Z,712
2016-02-22T09:24:22.447Z,680
2016-02-22T09:25:22.464Z,660
2016-02-22T09:26:22.498Z,720
2016-02-22T09:27:22.533Z,728
2016-02-22T09:28:22.536Z,776
2016-02-22T09:29:22.569Z,736
2016-02-22T09:30:22.603Z,716
2016-02-22T09:31:22.591Z,640
2016-02-22T09:32:22.624Z,712
2016-02-22T09:33:22.627Z,664
2016-02-22T09:34:22.661Z,636
2016-02-22T09:35:22.694Z,668
2016-02-22T09:36:22.697Z,724
2016-02-22T09:37:22.732Z,712
2016-02-22T09:38:22.750Z,656
2016-02-22T09:39:22.768Z,624
2016-02-22T09:40:22.786Z,788
2016-02-22T09:41:22.805Z,764
2016-02-22T09:42:22.854Z,596
2016-02-22T09:43:22.841Z,512
2016-02-22T09:44:22.859Z,440
2016-02-22T09:45:22.894Z,528
2016-02-22T09:46:23.443Z,524
2016-02-22T09:47:22.929Z,564
2016-02-22T09:48:22.964Z,588
2016-02-22T09:49:22.982Z,692
2016-02-22T09:50:23.001Z,680
2016-02-22T09:51:23.019Z,628
2016-02-22T09:52:23.038Z,652
2016-02-22T09:53:23.086Z,596
2016-02-22T09:54:23.074Z,628
2016-02-22T09:55:23.108Z,624
2016-02-22T09:56:23.141Z,708
2016-02-22T09:57:23.145Z,564
2016-02-22T09:58:23.164Z,576
2016-02-22T09:59:23.853Z,744
2016-02-22T10:00:23.215Z,824
2016-02-22T10:01:23.233Z,788
2016-02-22T10:02:23.267Z,592
2016-02-22T10:03:23.270Z,708
2016-02-22T10:04:23.132Z,800
2016-02-22T10:05:23.307Z,788
2016-02-22T10:06:23.341Z,800
2016-02-22T10:07:23.358Z,944
2016-02-22T10:08:23.424Z,1076
2016-02-22T10:09:23.395Z,916
2016-02-22T10:10:23.445Z,892
2016-02-22T10:11:23.432Z,744
2016-02-22T10:12:23.466Z,792
2016-02-22T10:13:23.484Z,716
2016-02-22T10:14:24.144Z,512
2016-02-22T10:15:23.537Z,496
2016-02-22T10:16:23.554Z,636
2016-02-22T10:17:23.605Z,488
2016-02-22T10:18:23.607Z,448
2016-02-22T10:19:23.626Z,500
2016-02-22T10:20:23.643Z,508
2016-02-22T10:21:23.678Z,668
2016-02-22T10:22:23.696Z,600
2016-02-22T10:23:23.699Z,512
2016-02-22T10:24:23.733Z,688
2016-02-22T10:25:23.751Z,632
2016-02-22T10:26:23.785Z,768
2016-02-22T10:27:23.787Z,928
2016-02-22T10:28:23.806Z,868
2016-02-22T10:29:23.839Z,812
2016-02-22T10:30:23.858Z,644
2016-02-22T10:31:23.877Z,600
2016-02-22T10:32:23.895Z,536
2016-02-22T10:33:23.928Z,728
2016-02-22T10:34:23.947Z,892
2016-02-22T10:35:23.794Z,956
2016-02-22T10:36:23.983Z,1240
2016-02-22T10:37:24.018Z,1128
2016-02-22T10:38:24.021Z,1216
2016-02-22T10:39:24.039Z,1292
2016-02-22T10:40:24.088Z,1320
2016-02-22T10:41:24.091Z,1400
2016-02-22T10:42:24.109Z,1724
2016-02-22T10:43:24.159Z,1548
2016-02-22T10:44:24.162Z,1648
2016-02-22T10:45:24.180Z,1544
2016-02-22T10:46:24.198Z,1496
2016-02-22T10:47:24.216Z,1672
2016-02-22T10:48:24.235Z,1640
2016-02-22T10:49:24.268Z,1864
2016-02-22T10:50:24.303Z,1980
2016-02-22T10:51:24.321Z,1716
2016-02-22T10:52:24.324Z,1668
2016-02-22T10:53:24.342Z,1636
2016-02-22T10:54:24.360Z,1596
2016-02-22T10:55:24.410Z,1528
2016-02-22T10:56:24.412Z,1524
2016-02-22T10:57:24.431Z,1560
2016-02-22T10:58:24.450Z,1520
2016-02-22T10:59:24.484Z,1624
2016-02-22T11:00:24.486Z,1928
2016-02-22T11:01:24.520Z,2012
2016-02-22T11:02:24.553Z,2036
2016-02-22T11:03:24.588Z,2124
2016-02-22T11:04:24.591Z,1940
2016-02-22T11:05:24.609Z,2040
2016-02-22T11:06:24.627Z,1880
2016-02-22T11:07:24.661Z,1768
2016-02-22T11:08:24.679Z,1552
2016-02-22T11:09:24.697Z,1532
2016-02-22T11:10:24.763Z,1248
2016-02-22T11:11:24.734Z,1216
2016-02-22T11:12:24.768Z,1272
2016-02-22T11:13:24.786Z,1184
2016-02-22T11:14:25.008Z,1132
2016-02-22T11:15:24.823Z,1336
2016-02-22T11:16:24.857Z,1084
2016-02-22T11:17:24.859Z,916
2016-02-22T11:18:24.894Z,896
2016-02-22T11:19:24.912Z,872
2016-02-22T11:20:24.977Z,952
2016-02-22T11:21:24.964Z,756
2016-02-22T11:22:24.982Z,724
2016-02-22T11:23:25.001Z,784
2016-02-22T11:24:25.035Z,748
2016-02-22T11:25:25.053Z,636
2016-02-22T11:26:25.243Z,692
2016-02-22T11:27:25.153Z,768
2016-02-22T11:28:25.092Z,664
2016-02-22T11:29:25.142Z,720
2016-02-22T11:30:25.160Z,780
2016-02-22T11:31:25.179Z,744
2016-02-22T11:32:25.197Z,792
2016-02-22T11:33:25.231Z,764
2016-02-22T11:34:25.249Z,904
2016-02-22T11:35:25.267Z,872
2016-02-22T11:36:25.302Z,840
2016-02-22T11:37:25.319Z,760
2016-02-22T11:38:25.322Z,724
2016-02-22T11:39:25.356Z,888
2016-02-22T11:40:25.438Z,904
2016-02-22T11:41:25.393Z,920
2016-02-22T11:42:25.443Z,1068
2016-02-22T11:43:25.445Z,1104
2016-02-22T11:44:25.464Z,1064
2016-02-22T11:45:25.497Z,920
2016-02-22T11:46:25.516Z,908
2016-02-22T11:47:25.534Z,644
2016-02-22T11:48:25.552Z,636
2016-02-22T11:49:25.571Z,640
2016-02-22T11:50:25.605Z,1012
2016-02-22T11:51:25.654Z,752
2016-02-22T11:52:25.656Z,748
2016-02-22T11:53:25.676Z,852
2016-02-22T11:54:25.678Z,824
2016-02-22T11:55:25.712Z,700
2016-02-22T11:56:25.730Z,640
2016-02-22T11:57:25.765Z,616
2016-02-22T11:58:25.767Z,604
2016-02-22T11:59:25.801Z,788
2016-02-22T12:00:25.803Z,764
2016-02-22T12:01:25.837Z,744
2016-02-22T12:02:25.856Z,636
2016-02-22T12:03:25.889Z,664
2016-02-22T12:04:25.892Z,676
2016-02-22T12:05:25.925Z,692
2016-02-22T12:06:25.945Z,572
2016-02-22T12:07:25.963Z,588
2016-02-22T12:08:25.997Z,648
2016-02-22T12:09:25.999Z,780
2016-02-22T12:10:26.034Z,724
2016-02-22T12:11:26.052Z,636
2016-02-22T12:12:26.070Z,776
2016-02-22T12:13:26.088Z,732
2016-02-22T12:14:26.121Z,648
2016-02-22T12:15:26.141Z,656
2016-02-22T12:16:26.175Z,692
2016-02-22T12:17:26.193Z,772
2016-02-22T12:18:26.226Z,632
2016-02-22T12:19:26.230Z,684
2016-02-22T12:20:26.263Z,872
2016-02-22T12:21:26.266Z,636
2016-02-22T12:22:26.315Z,764
2016-02-22T12:23:26.319Z,640
2016-02-22T12:24:26.337Z,788
2016-02-22T12:25:26.371Z,768
2016-02-22T12:26:26.373Z,724
2016-02-22T12:27:26.422Z,532
2016-02-22T12:28:26.410Z,464
2016-02-22T12:29:26.445Z,500
2016-02-22T12:30:26.478Z,488
2016-02-22T12:31:26.480Z,392
2016-02-22T12:32:26.515Z,352
2016-02-22T12:33:26.533Z,340
2016-02-22T12:34:26.551Z,328
2016-02-22T12:35:26.428Z,328
2016-02-22T12:36:26.604Z,248
2016-02-22T12:37:26.621Z,212
2016-02-22T12:38:26.656Z,192
2016-02-22T12:39:26.689Z,196
2016-02-22T12:40:26.691Z,156
2016-02-22T12:41:26.711Z,160
2016-02-22T12:42:26.761Z,172
2016-02-22T12:43:26.747Z,168
2016-02-22T12:44:26.780Z,160
2016-02-22T12:45:26.800Z,192
2016-02-22T12:46:26.818Z,172
2016-02-22T12:47:26.836Z,180
2016-02-22T12:48:26.885Z,196
2016-02-22T12:49:26.904Z,196
2016-02-22T12:50:26.907Z,188
2016-02-22T12:51:26.941Z,232
2016-02-22T12:52:26.943Z,204
2016-02-22T12:53:27.935Z,188
2016-02-22T12:54:26.985Z,204
2016-02-22T12:55:27.050Z,208
2016-02-22T12:56:27.506Z,276
2016-02-22T12:57:27.056Z,304
2016-02-22T12:58:27.090Z,272
2016-02-22T12:59:27.139Z,352
2016-02-22T13:00:27.531Z,576
2016-02-22T13:01:27.145Z,792
2016-02-22T13:02:27.194Z,676
2016-02-22T13:03:27.197Z,516
2016-02-22T13:04:27.231Z,468
2016-02-22T13:05:27.233Z,524
2016-02-22T13:06:27.252Z,632
2016-02-22T13:07:27.332Z,612
2016-02-22T13:08:27.288Z,536
2016-02-22T13:09:27.322Z,540
2016-02-22T13:10:27.341Z,404
2016-02-22T13:11:27.374Z,660
2016-02-22T13:12:27.393Z,424
2016-02-22T13:13:27.411Z,368
2016-02-22T13:14:27.429Z,352
2016-02-22T13:15:27.479Z,364
2016-02-22T13:16:27.466Z,424
2016-02-22T13:17:27.516Z,364
2016-02-22T13:18:27.518Z,316
2016-02-22T13:19:27.396Z,360
2016-02-22T13:20:27.554Z,312
2016-02-22T13:21:27.588Z,328
2016-02-22T13:22:27.591Z,264
2016-02-22T13:23:27.641Z,220
2016-02-22T13:24:27.643Z,224
2016-02-22T13:25:27.678Z,212
2016-02-22T13:26:27.727Z,248
2016-02-22T13:27:27.714Z,300
2016-02-22T13:28:27.732Z,336
2016-02-22T13:29:27.767Z,284
2016-02-22T13:30:27.770Z,276
2016-02-22T13:31:27.804Z,224
2016-02-22T13:32:27.822Z,308
2016-02-22T13:33:27.839Z,392
2016-02-22T13:34:27.859Z,320
2016-02-22T13:35:27.876Z,348
2016-02-22T13:36:27.911Z,408
2016-02-22T13:37:27.928Z,424
2016-02-22T13:38:27.963Z,512
2016-02-22T13:39:27.980Z,452
2016-02-22T13:40:28.014Z,384
2016-02-22T13:41:28.017Z,324
2016-02-22T13:42:28.036Z,312
2016-02-22T13:43:28.069Z,312
2016-02-22T13:44:28.072Z,304
2016-02-22T13:45:28.107Z,260
2016-02-22T13:46:28.110Z,320
2016-02-22T13:47:28.158Z,368
2016-02-22T13:48:28.178Z,508
2016-02-22T13:49:28.196Z,452
2016-02-22T13:50:28.213Z,388
2016-02-22T13:51:28.232Z,416
2016-02-22T13:52:28.251Z,408
2016-02-22T13:53:28.853Z,388
2016-02-22T13:54:28.578Z,352
2016-02-22T13:55:28.316Z,300
2016-02-22T13:56:30.610Z,368
2016-02-22T13:57:28.360Z,300
2016-02-22T13:58:28.363Z,312
2016-02-22T13:59:28.554Z,464
2016-02-22T14:00:28.446Z,568
2016-02-22T14:01:28.434Z,568
2016-02-22T14:02:28.468Z,364
2016-02-22T14:03:28.471Z,284
2016-02-22T14:04:28.521Z,324
2016-02-22T14:05:28.368Z,464
2016-02-22T14:06:28.541Z,348
2016-02-22T14:07:28.576Z,304
2016-02-22T14:08:28.609Z,328
2016-02-22T14:09:28.628Z,208
2016-02-22T14:10:28.630Z,168
2016-02-22T14:11:28.649Z,208